Time,TemperatureF,DewpointF,PressureIn,WindDirection,WindDirectionDegrees,WindSpeedMPH,WindSpeedGustMPH,Humidity,HourlyPrecipIn,Conditions,Clouds,dailyrainin,SoftwareType,DateUTC
2013-04-02 00:04:00,36.4,32.0,29.93,NE,34,0.0,5.0,84,0.00,,---,0.00,VWS V14.00,2013-04-02 06:04:00,
2013-04-02 00:09:00,36.4,31.7,29.93,NE,34,2.0,4.0,83,0.00,,---,0.00,VWS V14.00,2013-04-02 06:09:00,
2013-04-02 00:14:00,36.4,31.4,29.93,NE,34,3.0,5.0,82,0.00,,---,0.00,VWS V14.00,2013-04-02 06:14:00,
2013-04-02 00:19:00,36.3,31.3,29.93,NE,34,3.0,5.0,82,0.00,,---,0.00,VWS V14.00,2013-04-02 06:19:00,
2013-04-02 00:25:00,36.2,31.2,29.92,NNE,26,4.0,6.0,82,0.00,,---,0.00,VWS V14.00,2013-04-02 06:25:00,
2013-04-02 00:30:00,36.2,31.2,29.92,NNE,26,3.0,6.0,82,0.00,,---,0.00,VWS V14.00,2013-04-02 06:30:00,
2013-04-02 00:35:00,36.2,31.5,29.93,NNE,30,2.0,7.0,83,0.00,,---,0.00,VWS V14.00,2013-04-02 06:35:00,
2013-04-02 00:40:00,36.2,31.5,29.93,NNE,30,2.0,3.0,83,0.00,,---,0.00,VWS V14.00,2013-04-02 06:40:00,
2013-04-02 00:45:00,36.2,31.8,29.93,NNE,30,4.0,5.0,84,0.00,,---,0.00,VWS V14.00,2013-04-02 06:45:00,
2013-04-02 00:50:00,36.1,31.5,29.93,NNE,30,3.0,5.0,83,0.00,,---,0.00,VWS V14.00,2013-04-02 06:50:00,
2013-04-02 00:56:00,36.1,31.7,29.93,NNE,30,5.0,5.0,84,0.00,,---,0.00,VWS V14.00,2013-04-02 06:56:00,
2013-04-02 01:01:00,36.0,31.9,29.93,NNW,344,4.0,6.0,85,0.00,,---,0.00,VWS V14.00,2013-04-02 07:01:00,
2013-04-02 01:06:00,36.0,32.5,29.93,NNW,347,5.0,7.0,87,0.00,,---,0.00,VWS V14.00,2013-04-02 07:06:00,
2013-04-02 01:11:00,35.8,32.3,29.93,NNW,338,6.0,8.0,87,0.00,,---,0.00,VWS V14.00,2013-04-02 07:11:00,
2013-04-02 01:17:00,35.7,32.5,29.93,NNW,331,6.0,8.0,88,0.00,,---,0.00,VWS V14.00,2013-04-02 07:17:00,
2013-04-02 01:22:00,35.5,32.3,29.93,NNW,344,5.0,9.0,88,0.00,,---,0.00,VWS V14.00,2013-04-02 07:22:00,
2013-04-02 01:27:00,35.5,32.3,29.93,North,355,7.0,9.0,88,0.00,,---,0.00,VWS V14.00,2013-04-02 07:27:00,
2013-04-02 01:32:00,35.4,32.2,29.92,North,360,9.0,9.0,88,0.00,,---,0.00,VWS V14.00,2013-04-02 07:32:00,
2013-04-02 01:37:00,35.3,31.8,29.92,NNW,348,7.0,8.0,87,0.00,,---,0.00,VWS V14.00,2013-04-02 07:37:00,
2013-04-02 01:42:00,35.3,31.8,29.92,North,350,6.0,8.0,87,0.00,,---,0.00,VWS V14.00,2013-04-02 07:42:00,
2013-04-02 01:47:00,35.3,31.8,29.92,NNW,348,6.0,7.0,87,0.00,,---,0.00,VWS V14.00,2013-04-02 07:47:00,
2013-04-02 01:53:00,35.2,31.4,29.92,North,355,5.0,8.0,86,0.00,,---,0.00,VWS V14.00,2013-04-02 07:53:00,
2013-04-02 01:58:00,35.3,31.5,29.92,North,360,7.0,8.0,86,0.00,,---,0.00,VWS V14.00,2013-04-02 07:58:00,
2013-04-02 02:03:00,35.2,31.4,29.92,North,360,6.0,8.0,86,0.00,,---,0.00,VWS V14.00,2013-04-02 08:03:00,
2013-04-02 02:08:00,35.2,31.4,29.92,North,355,6.0,8.0,86,0.00,,---,0.00,VWS V14.00,2013-04-02 08:08:00,
2013-04-02 02:13:00,35.2,31.4,29.92,NNW,348,7.0,9.0,86,0.00,,---,0.00,VWS V14.00,2013-04-02 08:13:00,
2013-04-02 02:18:00,35.2,31.4,29.92,North,360,4.0,7.0,86,0.00,,---,0.00,VWS V14.00,2013-04-02 08:18:00,
2013-04-02 02:23:00,35.3,31.8,29.92,North,355,4.0,7.0,87,0.00,,---,0.00,VWS V14.00,2013-04-02 08:23:00,
2013-04-02 02:28:00,35.4,32.2,29.93,NNW,336,4.0,6.0,88,0.00,,---,0.00,VWS V14.00,2013-04-02 08:28:00,
2013-04-02 02:34:00,35.4,32.2,29.92,NNW,342,4.0,6.0,88,0.00,,---,0.00,VWS V14.00,2013-04-02 08:34:00,
2013-04-02 02:39:00,35.3,32.1,29.92,NNW,333,5.0,6.0,88,0.00,,---,0.00,VWS V14.00,2013-04-02 08:39:00,
2013-04-02 02:44:00,35.4,32.2,29.92,NNW,338,4.0,6.0,88,0.00,,---,0.00,VWS V14.00,2013-04-02 08:44:00,
2013-04-02 02:49:00,35.4,32.2,29.92,NNW,333,4.0,6.0,88,0.00,,---,0.00,VWS V14.00,2013-04-02 08:49:00,
2013-04-02 02:54:00,35.5,32.3,29.92,NNW,342,4.0,6.0,88,0.00,,---,0.00,VWS V14.00,2013-04-02 08:54:00,
2013-04-02 02:59:00,35.5,32.3,29.92,NW,324,3.0,6.0,88,0.00,,---,0.00,VWS V14.00,2013-04-02 08:59:00,
2013-04-02 03:05:00,35.5,32.0,29.92,NW,323,4.0,6.0,87,0.00,,---,0.00,VWS V14.00,2013-04-02 09:05:00,
2013-04-02 03:10:00,35.6,32.4,29.92,NNW,344,2.0,5.0,88,0.00,,---,0.00,VWS V14.00,2013-04-02 09:10:00,
2013-04-02 03:15:00,35.6,32.4,29.92,North,5,4.0,5.0,88,0.00,,---,0.00,VWS V14.00,2013-04-02 09:15:00,
2013-04-02 03:20:00,35.5,32.3,29.92,North,5,2.0,5.0,88,0.00,,---,0.00,VWS V14.00,2013-04-02 09:20:00,
2013-04-02 03:26:00,35.5,32.6,29.92,North,5,2.0,3.0,89,0.00,,---,0.00,VWS V14.00,2013-04-02 09:26:00,
2013-04-02 03:31:00,35.5,32.6,29.92,North,5,2.0,4.0,89,0.00,,---,0.00,VWS V14.00,2013-04-02 09:31:00,
2013-04-02 03:37:00,35.4,32.5,29.92,North,5,0.0,0.0,89,0.00,,---,0.00,VWS V14.00,2013-04-02 09:37:00,
2013-04-02 03:42:00,35.4,32.5,29.92,North,5,0.0,0.0,89,0.00,,---,0.00,VWS V14.00,2013-04-02 09:42:00,
2013-04-02 03:47:00,35.4,32.5,29.92,North,5,0.0,0.0,89,0.00,,---,0.00,VWS V14.00,2013-04-02 09:47:00,
2013-04-02 03:52:00,35.4,32.5,29.92,North,5,0.0,0.0,89,0.00,,---,0.00,VWS V14.00,2013-04-02 09:52:00,
2013-04-02 03:57:00,35.3,32.4,29.92,North,5,0.0,2.0,89,0.00,,---,0.00,VWS V14.00,2013-04-02 09:57:00,
2013-04-02 04:02:00,35.3,32.4,29.92,North,5,0.0,2.0,89,0.00,,---,0.00,VWS V14.00,2013-04-02 10:02:00,
2013-04-02 04:07:00,35.3,32.4,29.92,North,5,3.0,3.0,89,0.00,,---,0.00,VWS V14.00,2013-04-02 10:07:00,
2013-04-02 04:12:00,35.3,32.4,29.92,North,9,4.0,5.0,89,0.00,,---,0.00,VWS V14.00,2013-04-02 10:12:00,
2013-04-02 04:18:00,35.3,32.4,29.92,NNE,14,4.0,5.0,89,0.00,,---,0.00,VWS V14.00,2013-04-02 10:18:00,
2013-04-02 04:23:00,35.3,32.7,29.92,North,11,5.0,5.0,90,0.00,,---,0.00,VWS V14.00,2013-04-02 10:23:00,
2013-04-02 04:28:00,35.3,32.7,29.92,North,5,5.0,6.0,90,0.00,,---,0.00,VWS V14.00,2013-04-02 10:28:00,
2013-04-02 04:33:00,35.2,32.6,29.92,NNE,17,7.0,9.0,90,0.00,,---,0.00,VWS V14.00,2013-04-02 10:33:00,
2013-04-02 04:38:00,35.0,32.1,29.91,North,360,6.0,8.0,89,0.00,,---,0.00,VWS V14.00,2013-04-02 10:38:00,
2013-04-02 04:44:00,34.8,31.9,29.91,North,5,7.0,8.0,89,0.00,,---,0.00,VWS V14.00,2013-04-02 10:44:00,
2013-04-02 04:49:00,34.7,31.5,29.91,North,11,7.0,9.0,88,0.00,,---,0.00,VWS V14.00,2013-04-02 10:49:00,
2013-04-02 04:54:00,34.7,31.5,29.91,North,11,8.0,9.0,88,0.00,,---,0.00,VWS V14.00,2013-04-02 10:54:00,
2013-04-02 04:59:00,34.7,31.5,29.91,North,5,9.0,9.0,88,0.00,,---,0.00,VWS V14.00,2013-04-02 10:59:00,
2013-04-02 05:04:00,34.7,31.8,29.91,North,9,8.0,9.0,89,0.00,,---,0.00,VWS V14.00,2013-04-02 11:04:00,
2013-04-02 05:10:00,34.7,31.8,29.91,NNE,16,7.0,9.0,89,0.00,,---,0.00,VWS V14.00,2013-04-02 11:10:00,
2013-04-02 05:15:00,34.7,31.8,29.91,NNE,22,6.0,9.0,89,0.00,,---,0.00,VWS V14.00,2013-04-02 11:15:00,
2013-04-02 05:20:00,34.7,31.8,29.91,NNE,17,5.0,8.0,89,0.00,,---,0.00,VWS V14.00,2013-04-02 11:20:00,
2013-04-02 05:25:00,34.8,32.2,29.91,NNE,17,6.0,8.0,90,0.00,,---,0.00,VWS V14.00,2013-04-02 11:25:00,
2013-04-02 05:30:00,34.7,31.8,29.91,NNE,18,7.0,8.0,89,0.00,,---,0.00,VWS V14.00,2013-04-02 11:30:00,
2013-04-02 05:35:00,34.7,31.8,29.91,NNE,28,5.0,6.0,89,0.00,,---,0.00,VWS V14.00,2013-04-02 11:35:00,
2013-04-02 05:40:00,34.7,31.8,29.91,NNE,22,4.0,6.0,89,0.00,,---,0.00,VWS V14.00,2013-04-02 11:40:00,
2013-04-02 05:46:00,34.7,32.1,29.91,NNE,28,4.0,6.0,90,0.00,,---,0.00,VWS V14.00,2013-04-02 11:46:00,
2013-04-02 05:51:00,34.6,32.0,29.91,NNE,29,5.0,6.0,90,0.00,,---,0.00,VWS V14.00,2013-04-02 11:51:00,
2013-04-02 05:56:00,34.5,31.9,29.92,NNE,29,4.0,5.0,90,0.00,,---,0.00,VWS V14.00,2013-04-02 11:56:00,
2013-04-02 06:02:00,34.5,31.9,29.92,NNE,19,5.0,6.0,90,0.00,,---,0.00,VWS V14.00,2013-04-02 12:02:00,
2013-04-02 06:07:00,34.4,31.8,29.92,North,11,4.0,4.0,90,0.00,,---,0.00,VWS V14.00,2013-04-02 12:07:00,
2013-04-02 06:12:00,34.4,31.8,29.92,North,11,3.0,5.0,90,0.00,,---,0.00,VWS V14.00,2013-04-02 12:12:00,
2013-04-02 06:17:00,34.4,31.8,29.92,NNE,15,5.0,5.0,90,0.00,,---,0.00,VWS V14.00,2013-04-02 12:17:00,
2013-04-02 06:22:00,34.3,31.7,29.92,NNE,28,2.0,5.0,90,0.00,,---,0.00,VWS V14.00,2013-04-02 12:22:00,
2013-04-02 06:28:00,34.3,31.7,29.92,NNE,28,1.0,3.0,90,0.00,,---,0.00,VWS V14.00,2013-04-02 12:28:00,
2013-04-02 06:33:00,34.3,31.4,29.92,NNE,28,0.0,3.0,89,0.00,,---,0.00,VWS V14.00,2013-04-02 12:33:00,
2013-04-02 06:38:00,34.2,31.3,29.92,NNE,20,5.0,6.0,89,0.00,,---,0.00,VWS V14.00,2013-04-02 12:38:00,
2013-04-02 06:43:00,34.2,31.3,29.92,NNE,19,2.0,6.0,89,0.00,,---,0.00,VWS V14.00,2013-04-02 12:43:00,
2013-04-02 06:48:00,34.2,31.3,29.92,NNE,19,2.0,3.0,89,0.00,,---,0.00,VWS V14.00,2013-04-02 12:48:00,
2013-04-02 06:53:00,34.2,31.3,29.92,NNE,19,4.0,4.0,89,0.00,,---,0.00,VWS V14.00,2013-04-02 12:53:00,
2013-04-02 06:58:00,34.1,31.5,29.92,NNE,24,3.0,5.0,90,0.00,,---,0.00,VWS V14.00,2013-04-02 12:58:00,
2013-04-02 07:04:00,34.1,31.5,29.92,NNE,26,4.0,5.0,90,0.00,,---,0.00,VWS V14.00,2013-04-02 13:04:00,
2013-04-02 07:09:00,34.1,31.5,29.92,NNE,26,3.0,5.0,90,0.00,,---,0.00,VWS V14.00,2013-04-02 13:09:00,
2013-04-02 07:14:00,34.1,31.5,29.92,NNE,29,5.0,6.0,90,0.00,,---,0.00,VWS V14.00,2013-04-02 13:14:00,
2013-04-02 07:19:00,34.2,31.6,29.92,NNE,32,4.0,7.0,90,0.00,,---,0.00,VWS V14.00,2013-04-02 13:19:00,
2013-04-02 07:24:00,34.2,31.6,29.92,NNE,32,4.0,7.0,90,0.00,,---,0.00,VWS V14.00,2013-04-02 13:24:00,
2013-04-02 07:29:00,34.2,31.6,29.92,NNE,26,6.0,7.0,90,0.00,,---,0.00,VWS V14.00,2013-04-02 13:29:00,
2013-04-02 07:35:00,34.2,31.6,29.92,NNE,23,5.0,7.0,90,0.00,,---,0.00,VWS V14.00,2013-04-02 13:35:00,
2013-04-02 07:40:00,34.2,31.6,29.92,NNE,23,6.0,6.0,90,0.00,,---,0.00,VWS V14.00,2013-04-02 13:40:00,
2013-04-02 07:45:00,34.3,31.7,29.92,NNE,18,6.0,7.0,90,0.00,,---,0.00,VWS V14.00,2013-04-02 13:45:00,
2013-04-02 07:50:00,34.4,31.8,29.92,NNE,28,6.0,8.0,90,0.00,,---,0.00,VWS V14.00,2013-04-02 13:50:00,
2013-04-02 07:55:00,34.5,31.9,29.92,NNE,28,6.0,7.0,90,0.00,,---,0.00,VWS V14.00,2013-04-02 13:55:00,
2013-04-02 08:00:00,34.5,31.9,29.92,NNE,15,7.0,10.0,90,0.00,,---,0.00,VWS V14.00,2013-04-02 14:00:00,
2013-04-02 08:06:00,34.6,32.0,29.92,NNE,20,6.0,7.0,90,0.00,,---,0.00,VWS V14.00,2013-04-02 14:06:00,
2013-04-02 08:11:00,34.7,32.1,29.92,NNE,25,6.0,7.0,90,0.00,,---,0.00,VWS V14.00,2013-04-02 14:11:00,
2013-04-02 08:16:00,34.8,32.2,29.92,NNE,21,5.0,6.0,90,0.00,,---,0.00,VWS V14.00,2013-04-02 14:16:00,
2013-04-02 08:22:00,34.9,32.3,29.92,NNE,26,5.0,7.0,90,0.00,,---,0.00,VWS V14.00,2013-04-02 14:22:00,
2013-04-02 08:27:00,35.1,32.5,29.92,NE,34,6.0,7.0,90,0.00,,---,0.00,VWS V14.00,2013-04-02 14:27:00,
2013-04-02 08:32:00,35.2,32.6,29.92,NNE,23,7.0,7.0,90,0.00,,---,0.00,VWS V14.00,2013-04-02 14:32:00,
2013-04-02 08:37:00,35.2,32.6,29.92,NNE,14,8.0,8.0,90,0.00,,---,0.00,VWS V14.00,2013-04-02 14:37:00,
2013-04-02 08:42:00,35.3,32.7,29.92,North,11,7.0,9.0,90,0.00,,---,0.00,VWS V14.00,2013-04-02 14:42:00,
2013-04-02 08:47:00,35.4,32.8,29.92,North,360,8.0,8.0,90,0.00,,---,0.00,VWS V14.00,2013-04-02 14:47:00,
2013-04-02 08:52:00,35.5,32.9,29.91,North,10,7.0,9.0,90,0.00,,---,0.00,VWS V14.00,2013-04-02 14:52:00,
2013-04-02 08:57:00,35.6,33.0,29.92,NNE,27,7.0,9.0,90,0.00,,---,0.00,VWS V14.00,2013-04-02 14:57:00,
2013-04-02 09:03:00,35.7,33.1,29.92,NNE,17,7.0,9.0,90,0.00,,---,0.00,VWS V14.00,2013-04-02 15:03:00,
2013-04-02 09:08:00,35.8,33.2,29.91,NNE,21,8.0,9.0,90,0.00,,---,0.00,VWS V14.00,2013-04-02 15:08:00,
2013-04-02 09:13:00,35.8,33.2,29.92,NE,34,6.0,9.0,90,0.00,,---,0.00,VWS V14.00,2013-04-02 15:13:00,
2013-04-02 09:18:00,35.9,33.3,29.92,NNE,29,8.0,9.0,90,0.00,,---,0.00,VWS V14.00,2013-04-02 15:18:00,
2013-04-02 09:23:00,35.9,33.3,29.92,NNE,19,9.0,10.0,90,0.00,,---,0.00,VWS V14.00,2013-04-02 15:23:00,
2013-04-02 09:28:00,35.9,33.3,29.92,NNE,28,6.0,10.0,90,0.00,,---,0.00,VWS V14.00,2013-04-02 15:28:00,
2013-04-02 09:35:00,36.1,33.5,29.92,NE,51,7.0,10.0,90,0.00,,---,0.00,VWS V14.00,2013-04-02 15:35:00,
2013-04-02 09:40:00,36.1,33.2,29.92,ENE,57,8.0,10.0,89,0.00,,---,0.00,VWS V14.00,2013-04-02 15:40:00,
2013-04-02 09:45:00,36.2,33.3,29.92,NE,51,7.0,10.0,89,0.00,,---,0.00,VWS V14.00,2013-04-02 15:45:00,
2013-04-02 09:50:00,36.2,33.0,29.93,NE,42,8.0,10.0,88,0.00,,---,0.00,VWS V14.00,2013-04-02 15:50:00,
2013-04-02 09:55:00,36.2,33.0,29.93,ENE,57,4.0,4.0,88,0.00,,---,0.00,VWS V14.00,2013-04-02 15:55:00,
2013-04-02 10:00:00,36.2,33.0,29.93,NE,37,6.0,9.0,88,0.00,,---,0.00,VWS V14.00,2013-04-02 16:00:00,
2013-04-02 10:05:00,36.2,33.0,29.93,NE,38,8.0,8.0,88,0.00,,---,0.00,VWS V14.00,2013-04-02 16:05:00,
2013-04-02 10:11:00,36.4,33.2,29.93,NE,49,4.0,8.0,88,0.00,,---,0.00,VWS V14.00,2013-04-02 16:11:00,
2013-04-02 10:16:00,36.6,33.1,29.93,NNE,16,5.0,7.0,87,0.00,,---,0.00,VWS V14.00,2013-04-02 16:16:00,
2013-04-02 10:22:00,36.8,33.3,29.93,NE,41,8.0,10.0,87,0.00,,---,0.00,VWS V14.00,2013-04-02 16:22:00,
2013-04-02 10:27:00,36.9,33.4,29.94,NE,36,5.0,8.0,87,0.00,,---,0.00,VWS V14.00,2013-04-02 16:27:00,
2013-04-02 10:32:00,37.1,33.3,29.93,NE,46,6.0,9.0,86,0.00,,---,0.00,VWS V14.00,2013-04-02 16:32:00,
2013-04-02 10:38:00,37.3,33.2,29.94,North,5,10.0,10.0,85,0.00,,---,0.00,VWS V14.00,2013-04-02 16:38:00,
2013-04-02 10:43:00,37.4,33.6,29.94,NE,36,8.0,10.0,86,0.00,,---,0.00,VWS V14.00,2013-04-02 16:43:00,
2013-04-02 10:48:00,37.6,33.5,29.94,NNE,27,6.0,10.0,85,0.00,,---,0.00,VWS V14.00,2013-04-02 16:48:00,
2013-04-02 10:53:00,37.8,33.4,29.94,NNE,14,6.0,10.0,84,0.01,,---,0.01,VWS V14.00,2013-04-02 16:53:00,
2013-04-02 10:58:00,38.0,33.6,29.94,NE,37,9.0,11.0,84,0.01,,---,0.01,VWS V14.00,2013-04-02 16:58:00,
2013-04-02 11:04:00,38.0,33.3,29.95,NE,42,9.0,13.0,83,0.01,,---,0.01,VWS V14.00,2013-04-02 17:04:00,
2013-04-02 11:09:00,37.9,32.9,29.95,NNE,25,8.0,10.0,82,0.01,,---,0.01,VWS V14.00,2013-04-02 17:09:00,
2013-04-02 11:15:00,37.9,33.2,29.95,NNE,25,8.0,12.0,83,0.01,,---,0.01,VWS V14.00,2013-04-02 17:15:00,
2013-04-02 11:20:00,38.0,33.3,29.95,North,360,8.0,13.0,83,0.01,,---,0.01,VWS V14.00,2013-04-02 17:20:00,
2013-04-02 11:25:00,38.1,33.1,29.95,NNE,19,7.0,13.0,82,0.01,,---,0.01,VWS V14.00,2013-04-02 17:25:00,
2013-04-02 11:30:00,38.2,33.2,29.94,NE,40,6.0,11.0,82,0.01,,---,0.01,VWS V14.00,2013-04-02 17:30:00,
2013-04-02 11:35:00,38.2,33.2,29.94,NE,42,9.0,10.0,82,0.01,,---,0.01,VWS V14.00,2013-04-02 17:35:00,
2013-04-02 11:40:00,38.3,33.3,29.94,NNE,19,9.0,12.0,82,0.01,,---,0.01,VWS V14.00,2013-04-02 17:40:00,
2013-04-02 11:45:00,38.5,33.2,29.94,NNE,17,9.0,10.0,81,0.01,,---,0.01,VWS V14.00,2013-04-02 17:45:00,
2013-04-02 11:51:00,38.3,33.0,29.94,NNE,26,9.0,12.0,81,0.01,,---,0.01,VWS V14.00,2013-04-02 17:51:00,
2013-04-02 11:57:00,38.2,32.9,29.94,North,11,11.0,13.0,81,0.00,,---,0.01,VWS V14.00,2013-04-02 17:57:00,
2013-04-02 12:02:00,38.1,32.8,29.94,North,355,10.0,13.0,81,0.00,,---,0.01,VWS V14.00,2013-04-02 18:02:00,
2013-04-02 12:07:00,38.1,33.1,29.94,North,5,9.0,12.0,82,0.00,,---,0.01,VWS V14.00,2013-04-02 18:07:00,
2013-04-02 12:12:00,38.0,33.0,29.94,North,11,12.0,14.0,82,0.00,,---,0.01,VWS V14.00,2013-04-02 18:12:00,
2013-04-02 12:17:00,38.0,33.0,29.94,North,9,12.0,14.0,82,0.00,,---,0.01,VWS V14.00,2013-04-02 18:17:00,
2013-04-02 12:23:00,38.1,33.1,29.94,North,9,12.0,14.0,82,0.00,,---,0.01,VWS V14.00,2013-04-02 18:23:00,
2013-04-02 12:28:00,37.8,32.5,29.93,NNE,20,11.0,13.0,81,0.00,,---,0.01,VWS V14.00,2013-04-02 18:28:00,
2013-04-02 12:33:00,37.6,32.6,29.94,North,11,10.0,13.0,82,0.00,,---,0.01,VWS V14.00,2013-04-02 18:33:00,
2013-04-02 12:38:00,37.5,32.8,29.94,North,11,8.0,12.0,83,0.00,,---,0.01,VWS V14.00,2013-04-02 18:38:00,
2013-04-02 12:43:00,37.4,32.7,29.94,NE,41,7.0,12.0,83,0.00,,---,0.01,VWS V14.00,2013-04-02 18:43:00,
2013-04-02 12:48:00,37.4,32.7,29.94,NNE,13,8.0,12.0,83,0.00,,---,0.01,VWS V14.00,2013-04-02 18:48:00,
2013-04-02 12:54:00,37.4,33.0,29.94,NE,46,11.0,13.0,84,0.00,,---,0.01,VWS V14.00,2013-04-02 18:54:00,
2013-04-02 12:59:00,37.3,32.9,29.94,NNE,20,10.0,12.0,84,0.00,,---,0.01,VWS V14.00,2013-04-02 18:59:00,
2013-04-02 13:04:00,37.2,33.1,29.93,NNE,22,10.0,12.0,85,0.00,,---,0.01,VWS V14.00,2013-04-02 19:04:00,
2013-04-02 13:09:00,36.9,33.1,29.93,NNE,32,9.0,13.0,86,0.00,,---,0.01,VWS V14.00,2013-04-02 19:09:00,
2013-04-02 13:14:00,36.9,33.7,29.93,NNE,28,8.0,13.0,88,0.00,,---,0.01,VWS V14.00,2013-04-02 19:14:00,
2013-04-02 13:19:00,36.6,33.4,29.94,NNE,17,12.0,12.0,88,0.00,,---,0.01,VWS V14.00,2013-04-02 19:19:00,
2013-04-02 13:25:00,36.6,33.7,29.94,NNE,15,9.0,12.0,89,0.00,,---,0.01,VWS V14.00,2013-04-02 19:25:00,
2013-04-02 13:30:00,36.7,33.8,29.93,NNE,21,9.0,12.0,89,0.00,,---,0.01,VWS V14.00,2013-04-02 19:30:00,
2013-04-02 13:35:00,36.6,33.7,29.93,NNE,29,11.0,12.0,89,0.00,,---,0.01,VWS V14.00,2013-04-02 19:35:00,
2013-04-02 13:40:00,36.4,33.8,29.93,NNE,24,9.0,12.0,90,0.00,,---,0.01,VWS V14.00,2013-04-02 19:40:00,
2013-04-02 13:46:00,36.0,32.8,29.93,North,5,8.0,10.0,88,0.00,,---,0.01,VWS V14.00,2013-04-02 19:46:00,
2013-04-02 13:51:00,35.9,33.0,29.93,NNE,18,8.0,11.0,89,0.00,,---,0.01,VWS V14.00,2013-04-02 19:51:00,
2013-04-02 13:57:00,35.9,33.0,29.93,North,9,7.0,12.0,89,0.01,,---,0.02,VWS V14.00,2013-04-02 19:57:00,
2013-04-02 14:02:00,36.0,33.1,29.93,NNE,17,7.0,12.0,89,0.01,,---,0.02,VWS V14.00,2013-04-02 20:02:00,
2013-04-02 14:07:00,36.1,33.5,29.93,North,5,7.0,9.0,90,0.01,,---,0.02,VWS V14.00,2013-04-02 20:07:00,
2013-04-02 14:13:00,36.0,33.1,29.93,NNE,22,5.0,11.0,89,0.01,,---,0.02,VWS V14.00,2013-04-02 20:13:00,
2013-04-02 14:18:00,35.8,32.9,29.93,North,5,5.0,7.0,89,0.02,,---,0.03,VWS V14.00,2013-04-02 20:18:00,
2013-04-02 14:23:00,35.5,32.6,29.93,North,5,5.0,8.0,89,0.02,,---,0.03,VWS V14.00,2013-04-02 20:23:00,
2013-04-02 14:28:00,35.3,32.7,29.93,North,355,4.0,7.0,90,0.03,,---,0.04,VWS V14.00,2013-04-02 20:28:00,
2013-04-02 14:33:00,35.5,33.1,29.92,NNW,347,6.0,8.0,91,0.03,,---,0.04,VWS V14.00,2013-04-02 20:33:00,
2013-04-02 14:38:00,35.7,33.3,29.92,NNW,341,8.0,9.0,91,0.04,,---,0.05,VWS V14.00,2013-04-02 20:38:00,
2013-04-02 14:44:00,36.2,34.1,29.93,North,5,8.0,9.0,92,0.04,,---,0.05,VWS V14.00,2013-04-02 20:44:00,
2013-04-02 14:49:00,36.2,34.1,29.93,North,5,7.0,10.0,92,0.04,,---,0.05,VWS V14.00,2013-04-02 20:49:00,
2013-04-02 14:54:00,36.3,34.2,29.92,North,360,6.0,10.0,92,0.04,,---,0.05,VWS V14.00,2013-04-02 20:54:00,
2013-04-02 14:59:00,36.5,34.4,29.92,North,9,8.0,8.0,92,0.04,,---,0.05,VWS V14.00,2013-04-02 20:59:00,
2013-04-02 15:04:00,36.5,34.1,29.93,North,11,7.0,10.0,91,0.04,,---,0.05,VWS V14.00,2013-04-02 21:04:00,
2013-04-02 15:09:00,36.3,33.9,29.93,North,5,6.0,9.0,91,0.04,,---,0.06,VWS V14.00,2013-04-02 21:09:00,
2013-04-02 15:15:00,36.2,33.8,29.93,NNE,17,4.0,10.0,91,0.04,,---,0.06,VWS V14.00,2013-04-02 21:15:00,
2013-04-02 15:20:00,36.3,34.2,29.93,North,9,7.0,9.0,92,0.03,,---,0.06,VWS V14.00,2013-04-02 21:20:00,
2013-04-02 15:25:00,36.1,34.0,29.92,North,5,9.0,10.0,92,0.04,,---,0.07,VWS V14.00,2013-04-02 21:25:00,
2013-04-02 15:30:00,36.2,34.1,29.93,NNE,12,5.0,8.0,92,0.04,,---,0.07,VWS V14.00,2013-04-02 21:30:00,
2013-04-02 15:35:00,36.2,34.1,29.93,North,5,4.0,5.0,92,0.03,,---,0.07,VWS V14.00,2013-04-02 21:35:00,
2013-04-02 15:40:00,36.4,34.3,29.93,North,360,5.0,8.0,92,0.03,,---,0.07,VWS V14.00,2013-04-02 21:40:00,
2013-04-02 15:45:00,36.5,34.4,29.93,NNE,17,7.0,7.0,92,0.02,,---,0.07,VWS V14.00,2013-04-02 21:45:00,
2013-04-02 15:52:00,36.8,35.0,29.92,North,355,6.0,9.0,93,0.03,,---,0.08,VWS V14.00,2013-04-02 21:52:00,
2013-04-02 15:57:00,36.5,34.4,29.92,North,355,7.0,11.0,92,0.03,,---,0.08,VWS V14.00,2013-04-02 21:57:00,
2013-04-02 16:02:00,36.6,34.5,29.92,NNW,341,8.0,11.0,92,0.04,,---,0.09,VWS V14.00,2013-04-02 22:02:00,
2013-04-02 16:08:00,36.6,34.5,29.92,NNW,341,6.0,9.0,92,0.04,,---,0.10,VWS V14.00,2013-04-02 22:08:00,
2013-04-02 16:13:00,36.7,34.6,29.93,NNW,344,7.0,11.0,92,0.05,,---,0.11,VWS V14.00,2013-04-02 22:13:00,
2013-04-02 16:18:00,36.7,34.6,29.93,North,349,8.0,10.0,92,0.05,,---,0.11,VWS V14.00,2013-04-02 22:18:00,
2013-04-02 16:23:00,36.6,34.5,29.92,NNW,343,6.0,11.0,92,0.05,,---,0.11,VWS V14.00,2013-04-02 22:23:00,
2013-04-02 16:28:00,36.5,34.4,29.93,North,350,8.0,12.0,92,0.05,,---,0.12,VWS V14.00,2013-04-02 22:28:00,
2013-04-02 16:33:00,36.4,34.3,29.93,NNW,333,10.0,12.0,92,0.05,,---,0.12,VWS V14.00,2013-04-02 22:33:00,
2013-04-02 16:39:00,36.4,34.3,29.93,NNW,342,11.0,12.0,92,0.05,,---,0.12,VWS V14.00,2013-04-02 22:39:00,
2013-04-02 16:44:00,36.3,34.2,29.93,NNW,339,10.0,13.0,92,0.05,,---,0.12,VWS V14.00,2013-04-02 22:44:00,
2013-04-02 16:49:00,36.4,34.3,29.93,NNW,329,9.0,12.0,92,0.06,,---,0.13,VWS V14.00,2013-04-02 22:49:00,
2013-04-02 16:54:00,36.4,34.3,29.93,NNW,344,8.0,13.0,92,0.07,,---,0.14,VWS V14.00,2013-04-02 22:54:00,
2013-04-02 16:59:00,36.5,34.4,29.94,NNW,338,8.0,10.0,92,0.06,,---,0.14,VWS V14.00,2013-04-02 22:59:00,
2013-04-02 17:04:00,36.5,34.4,29.94,NNW,335,7.0,10.0,92,0.06,,---,0.14,VWS V14.00,2013-04-02 23:04:00,
2013-04-02 17:09:00,36.7,34.6,29.94,North,349,7.0,9.0,92,0.05,,---,0.14,VWS V14.00,2013-04-02 23:09:00,
2013-04-02 17:15:00,36.8,34.7,29.94,NNW,335,7.0,10.0,92,0.06,,---,0.15,VWS V14.00,2013-04-02 23:15:00,
2013-04-02 17:20:00,36.9,34.8,29.94,NW,313,8.0,12.0,92,0.04,,---,0.15,VWS V14.00,2013-04-02 23:20:00,
2013-04-02 17:25:00,36.9,34.8,29.94,NW,320,9.0,9.0,92,0.04,,---,0.15,VWS V14.00,2013-04-02 23:25:00,
2013-04-02 17:30:00,36.9,34.8,29.95,NW,325,6.0,11.0,92,0.05,,---,0.16,VWS V14.00,2013-04-02 23:30:00,
2013-04-02 17:35:00,36.9,34.8,29.95,NW,316,6.0,8.0,92,0.04,,---,0.16,VWS V14.00,2013-04-02 23:35:00,
2013-04-02 17:41:00,37.0,34.9,29.95,NW,314,6.0,9.0,92,0.05,,---,0.17,VWS V14.00,2013-04-02 23:41:00,
2013-04-02 17:47:00,37.0,34.6,29.95,NW,319,9.0,10.0,91,0.05,,---,0.17,VWS V14.00,2013-04-02 23:47:00,
2013-04-02 17:52:00,37.0,34.6,29.95,NW,319,11.0,11.0,91,0.05,,---,0.17,VWS V14.00,2013-04-02 23:52:00,
2013-04-02 17:57:00,37.1,34.7,29.95,NW,309,8.0,10.0,91,0.03,,---,0.17,VWS V14.00,2013-04-02 23:57:00,
2013-04-02 18:02:00,37.1,34.7,29.95,NW,310,8.0,12.0,91,0.03,,---,0.17,VWS V14.00,2013-04-03 00:02:00,
2013-04-02 18:08:00,37.1,34.7,29.95,NW,304,11.0,11.0,91,0.03,,---,0.17,VWS V14.00,2013-04-03 00:08:00,
2013-04-02 18:13:00,37.1,34.7,29.95,NW,315,10.0,11.0,91,0.04,,---,0.18,VWS V14.00,2013-04-03 00:13:00,
2013-04-02 18:18:00,37.2,34.8,29.95,WNW,303,9.0,12.0,91,0.04,,---,0.19,VWS V14.00,2013-04-03 00:18:00,
2013-04-02 18:23:00,37.2,34.8,29.95,NW,305,8.0,12.0,91,0.05,,---,0.20,VWS V14.00,2013-04-03 00:23:00,
2013-04-02 18:28:00,37.2,34.8,29.96,NW,320,7.0,9.0,91,0.05,,---,0.20,VWS V14.00,2013-04-03 00:28:00,
2013-04-02 18:34:00,37.2,34.8,29.96,NW,317,8.0,9.0,91,0.06,,---,0.21,VWS V14.00,2013-04-03 00:34:00,
2013-04-02 18:39:00,37.2,34.5,29.96,NW,325,6.0,10.0,90,0.05,,---,0.21,VWS V14.00,2013-04-03 00:39:00,
2013-04-02 18:45:00,37.3,34.6,29.96,NW,320,7.0,10.0,90,0.05,,---,0.21,VWS V14.00,2013-04-03 00:45:00,
2013-04-02 18:50:00,37.3,34.6,29.96,NW,319,7.0,10.0,90,0.05,,---,0.22,VWS V14.00,2013-04-03 00:50:00,
2013-04-02 18:55:00,37.3,34.6,29.96,NW,325,8.0,9.0,90,0.05,,---,0.22,VWS V14.00,2013-04-03 00:55:00,
2013-04-02 19:00:00,37.3,34.6,29.96,NNW,329,8.0,10.0,90,0.05,,---,0.22,VWS V14.00,2013-04-03 01:00:00,
2013-04-02 19:05:00,37.4,34.7,29.96,NW,309,8.0,9.0,90,0.05,,---,0.22,VWS V14.00,2013-04-03 01:05:00,
2013-04-02 19:11:00,37.4,34.7,29.96,NW,313,8.0,10.0,90,0.05,,---,0.22,VWS V14.00,2013-04-03 01:11:00,
2013-04-02 19:16:00,37.4,34.7,29.96,NW,306,8.0,9.0,90,0.05,,---,0.23,VWS V14.00,2013-04-03 01:16:00,
2013-04-02 19:22:00,37.3,34.6,29.96,NW,323,7.0,11.0,90,0.05,,---,0.23,VWS V14.00,2013-04-03 01:22:00,
2013-04-02 19:27:00,37.3,34.6,29.96,NW,319,8.0,9.0,90,0.03,,---,0.23,VWS V14.00,2013-04-03 01:27:00,
2013-04-02 19:32:00,37.3,34.6,29.97,NW,315,9.0,10.0,90,0.03,,---,0.23,VWS V14.00,2013-04-03 01:32:00,
2013-04-02 19:37:00,37.3,34.6,29.96,NW,315,7.0,10.0,90,0.02,,---,0.23,VWS V14.00,2013-04-03 01:37:00,
2013-04-02 19:42:00,37.4,34.7,29.97,NW,322,8.0,10.0,90,0.02,,---,0.23,VWS V14.00,2013-04-03 01:42:00,
2013-04-02 19:47:00,37.3,34.6,29.97,WNW,296,8.0,9.0,90,0.02,,---,0.23,VWS V14.00,2013-04-03 01:47:00,
2013-04-02 19:53:00,37.4,34.7,29.97,NW,309,7.0,9.0,90,0.02,,---,0.23,VWS V14.00,2013-04-03 01:53:00,
2013-04-02 19:58:00,37.4,34.7,29.97,NW,313,7.0,10.0,90,0.01,,---,0.23,VWS V14.00,2013-04-03 01:58:00,
2013-04-02 20:03:00,37.4,34.7,29.97,NW,315,7.0,10.0,90,0.01,,---,0.23,VWS V14.00,2013-04-03 02:03:00,
2013-04-02 20:08:00,37.4,34.7,29.97,WNW,300,8.0,9.0,90,0.01,,---,0.23,VWS V14.00,2013-04-03 02:08:00,
2013-04-02 20:13:00,37.5,34.8,29.98,NW,304,7.0,9.0,90,0.01,,---,0.23,VWS V14.00,2013-04-03 02:13:00,
2013-04-02 20:18:00,37.5,34.8,29.98,NW,315,8.0,9.0,90,0.00,,---,0.23,VWS V14.00,2013-04-03 02:18:00,
2013-04-02 20:23:00,37.6,34.9,29.98,NW,307,9.0,10.0,90,0.00,,---,0.23,VWS V14.00,2013-04-03 02:23:00,
2013-04-02 20:29:00,37.6,34.9,29.98,NW,308,7.0,9.0,90,0.00,,---,0.23,VWS V14.00,2013-04-03 02:29:00,
2013-04-02 20:34:00,37.5,34.8,29.98,NW,311,8.0,10.0,90,0.00,,---,0.23,VWS V14.00,2013-04-03 02:34:00,
2013-04-02 20:39:00,37.6,34.9,29.99,NW,313,7.0,10.0,90,0.00,,---,0.23,VWS V14.00,2013-04-03 02:39:00,
2013-04-02 20:44:00,37.6,34.9,29.99,NNW,331,8.0,10.0,90,0.00,,---,0.23,VWS V14.00,2013-04-03 02:44:00,
2013-04-02 20:49:00,37.7,35.0,29.99,NW,325,7.0,10.0,90,0.01,,---,0.24,VWS V14.00,2013-04-03 02:49:00,
2013-04-02 20:54:00,37.7,35.0,29.99,NW,319,7.0,10.0,90,0.01,,---,0.24,VWS V14.00,2013-04-03 02:54:00,
2013-04-02 21:00:00,37.7,34.8,30.00,NNW,327,7.0,9.0,89,0.01,,---,0.24,VWS V14.00,2013-04-03 03:00:00,
2013-04-02 21:05:00,37.7,35.0,30.00,NNW,328,7.0,9.0,90,0.01,,---,0.24,VWS V14.00,2013-04-03 03:05:00,
2013-04-02 21:10:00,37.8,35.1,30.00,NW,326,5.0,9.0,90,0.01,,---,0.24,VWS V14.00,2013-04-03 03:10:00,
2013-04-02 21:15:00,37.8,35.1,30.00,NNW,338,6.0,7.0,90,0.01,,---,0.24,VWS V14.00,2013-04-03 03:15:00,
2013-04-02 21:21:00,37.8,35.1,30.00,NNW,340,5.0,9.0,90,0.01,,---,0.24,VWS V14.00,2013-04-03 03:21:00,
2013-04-02 21:26:00,37.7,35.0,30.00,North,351,6.0,7.0,90,0.02,,---,0.25,VWS V14.00,2013-04-03 03:26:00,
2013-04-02 21:31:00,37.6,34.9,30.00,North,350,7.0,8.0,90,0.02,,---,0.25,VWS V14.00,2013-04-03 03:31:00,
2013-04-02 21:37:00,37.5,35.1,30.00,NNW,346,5.0,7.0,91,0.02,,---,0.25,VWS V14.00,2013-04-03 03:37:00,
2013-04-02 21:42:00,37.4,34.7,30.00,NNW,348,5.0,7.0,90,0.02,,---,0.25,VWS V14.00,2013-04-03 03:42:00,
2013-04-02 21:47:00,37.3,34.9,30.00,North,351,5.0,6.0,91,0.03,,---,0.26,VWS V14.00,2013-04-03 03:47:00,
2013-04-02 21:52:00,37.1,34.7,30.00,North,355,4.0,6.0,91,0.03,,---,0.26,VWS V14.00,2013-04-03 03:52:00,
2013-04-02 21:57:00,37.1,34.7,30.01,North,5,4.0,5.0,91,0.02,,---,0.26,VWS V14.00,2013-04-03 03:57:00,
2013-04-02 22:00:00,37.1,34.7,30.01,North,5,3.0,5.0,91,0.02,,---,0.26,VWS V14.00,2013-04-03 04:00:00,
2013-04-02 22:01:00,37.1,34.7,30.01,North,5,4.0,5.0,91,0.02,,---,0.26,VWS V14.00,2013-04-03 04:01:00,
2013-04-02 22:07:00,37.0,34.6,30.00,North,5,3.0,4.0,91,0.03,,---,0.27,VWS V14.00,2013-04-03 04:07:00,
2013-04-02 22:12:00,36.9,34.5,30.00,North,5,2.0,4.0,91,0.03,,---,0.27,VWS V14.00,2013-04-03 04:12:00,
2013-04-02 22:17:00,36.9,34.8,30.00,North,355,4.0,5.0,92,0.03,,---,0.27,VWS V14.00,2013-04-03 04:17:00,
2013-04-02 22:22:00,37.0,34.9,30.00,North,355,4.0,5.0,92,0.03,,---,0.27,VWS V14.00,2013-04-03 04:22:00,
2013-04-02 22:27:00,37.0,34.6,30.00,NW,311,3.0,5.0,91,0.02,,---,0.27,VWS V14.00,2013-04-03 04:27:00,
2013-04-02 22:32:00,37.0,34.9,30.00,WNW,283,6.0,8.0,92,0.02,,---,0.27,VWS V14.00,2013-04-03 04:32:00,
2013-04-02 22:37:00,37.0,34.6,30.00,WNW,299,4.0,8.0,91,0.02,,---,0.27,VWS V14.00,2013-04-03 04:37:00,
2013-04-02 22:43:00,37.1,34.7,30.00,WNW,298,6.0,8.0,91,0.02,,---,0.27,VWS V14.00,2013-04-03 04:43:00,
2013-04-02 22:48:00,37.1,34.7,30.00,NW,308,5.0,8.0,91,0.01,,---,0.27,VWS V14.00,2013-04-03 04:48:00,
2013-04-02 22:53:00,37.2,34.8,30.00,NW,307,6.0,8.0,91,0.01,,---,0.27,VWS V14.00,2013-04-03 04:53:00,
2013-04-02 22:58:00,37.4,35.0,30.00,NW,306,5.0,7.0,91,0.01,,---,0.27,VWS V14.00,2013-04-03 04:58:00,
2013-04-02 23:03:00,37.5,34.8,30.00,WNW,302,4.0,7.0,90,0.01,,---,0.27,VWS V14.00,2013-04-03 05:03:00,
2013-04-02 23:08:00,37.5,34.8,29.99,WNW,302,4.0,6.0,90,0.01,,---,0.27,VWS V14.00,2013-04-03 05:08:00,
2013-04-02 23:14:00,37.6,34.9,29.99,WNW,287,6.0,6.0,90,0.01,,---,0.27,VWS V14.00,2013-04-03 05:14:00,
2013-04-02 23:19:00,37.7,35.0,29.99,WNW,287,4.0,6.0,90,0.00,,---,0.27,VWS V14.00,2013-04-03 05:19:00,
2013-04-02 23:24:00,37.9,35.2,29.99,WNW,292,7.0,7.0,90,0.00,,---,0.27,VWS V14.00,2013-04-03 05:24:00,
2013-04-02 23:29:00,37.9,35.2,29.99,WNW,291,7.0,8.0,90,0.00,,---,0.27,VWS V14.00,2013-04-03 05:29:00,
2013-04-02 23:34:00,38.1,35.2,29.99,WNW,292,6.0,8.0,89,0.00,,---,0.27,VWS V14.00,2013-04-03 05:34:00,
2013-04-02 23:39:00,38.3,35.1,29.99,NW,309,1.0,6.0,88,0.00,,---,0.27,VWS V14.00,2013-04-03 05:39:00,
2013-04-02 23:44:00,38.1,35.2,29.99,SE,130,4.0,6.0,89,0.00,,---,0.27,VWS V14.00,2013-04-03 05:44:00,
2013-04-02 23:50:00,37.5,34.8,29.99,SE,133,0.0,5.0,90,0.00,,---,0.27,VWS V14.00,2013-04-03 05:50:00,
2013-04-02 23:55:00,37.2,34.8,29.99,SE,133,0.0,5.0,91,0.00,,---,0.27,VWS V14.00,2013-04-03 05:55:00,